Time;durP1;ratioP1;P1;durP2;ratioP2;P2;SDS_P1;SDS_P2;PMS_P1;PMS_P2;Temp;Humidity;BMP_temperature;BMP_pressure;BME280_temperature;BME280_humidity;BME280_pressure;Samples;Min_cycle;Max_cycle;Signal;HPM_P1;HPM_P2
2023/07/04 00:01:45;;;;;;;10.93;3.60;;;;;;;23.50;37.04;100572.28;4995174;28;97787;-69
2023/07/04 00:04:13;;;;;;;10.93;3.70;;;;;;;23.54;37.14;100571.00;4998260;28;99106;-69
2023/07/04 00:06:40;;;;;;;12.23;3.60;;;;;;;23.48;37.24;100568.88;4982488;28;98118;-69
2023/07/04 00:09:07;;;;;;;15.05;4.15;;;;;;;23.33;37.56;100563.00;4996897;28;96663;-69
2023/07/04 00:11:34;;;;;;;11.82;3.38;;;;;;;23.35;37.61;100556.47;4988171;28;96958;-69
2023/07/04 00:14:00;;;;;;;10.70;4.00;;;;;;;23.57;37.32;100565.28;4979107;28;99304;-69
2023/07/04 00:16:27;;;;;;;10.82;3.83;;;;;;;23.52;37.48;100557.66;4993170;28;98907;-69
2023/07/04 00:18:54;;;;;;;11.10;3.40;;;;;;;23.23;37.78;100559.44;4984649;28;97776;-69
2023/07/04 00:21:20;;;;;;;9.18;3.63;;;;;;;23.16;38.04;100553.78;4978303;28;97129;-69
2023/07/04 00:23:52;;;;;;;10.60;3.90;;;;;;;23.17;37.86;100555.44;4981672;28;99462;-69
2023/07/04 00:26:20;;;;;;;10.45;3.67;;;;;;;23.25;37.76;100552.91;4983230;28;98849;-69
2023/07/04 00:28:47;;;;;;;10.65;3.65;;;;;;;23.18;37.96;100553.59;4985724;28;96725;-69
2023/07/04 00:31:17;;;;;;;11.85;3.50;;;;;;;23.29;37.78;100559.75;4981545;28;99216;-69
2023/07/04 00:33:43;;;;;;;13.48;3.58;;;;;;;23.53;37.58;100561.19;4982886;28;97825;-69
2023/07/04 00:36:13;;;;;;;9.43;3.10;;;;;;;23.30;37.65;100558.72;4981485;28;100588;-69
2023/07/04 00:38:41;;;;;;;12.23;3.70;;;;;;;23.26;37.82;100560.00;4981278;28;96754;-69
2023/07/04 00:41:13;;;;;;;8.80;3.30;;;;;;;23.27;37.80;100550.94;4983205;28;97214;-68
2023/07/04 00:43:57;;;;;;;16.08;3.83;;;;;;;23.15;38.17;100551.19;4979093;28;99068;-69
2023/07/04 00:46:36;;;;;;;14.63;3.67;;;;;;;23.16;37.97;100547.53;4981810;28;99129;-69
2023/07/04 00:49:06;;;;;;;8.73;2.83;;;;;;;23.37;37.57;100556.31;5002000;28;96777;-72
2023/07/04 00:51:34;;;;;;;13.00;4.43;;;;;;;23.25;37.67;100552.06;4988859;28;97712;-70
2023/07/04 00:54:00;;;;;;;14.02;4.53;;;;;;;23.36;37.47;100550.09;4997289;28;99377;-70
2023/07/04 00:56:30;;;;;;;11.85;3.90;;;;;;;23.35;37.31;100553.78;4989634;28;99191;-70
2023/07/04 00:58:59;;;;;;;10.35;3.88;;;;;;;23.44;37.45;100557.47;4994589;28;96823;-70
2023/07/04 01:01:25;;;;;;;14.77;3.80;;;;;;;23.27;37.57;100561.72;4999320;28;98435;-70
2023/07/04 01:03:52;;;;;;;12.40;4.32;;;;;;;23.46;37.07;100566.28;4998062;28;99236;-70
2023/07/04 01:06:25;;;;;;;13.15;3.85;;;;;;;23.41;37.27;100564.00;4990239;28;99719;-70
2023/07/04 01:08:56;;;;;;;12.82;3.63;;;;;;;23.16;37.41;100555.59;4988126;28;97379;-69
2023/07/04 01:11:29;;;;;;;13.27;4.00;;;;;;;23.22;37.45;100555.03;4987439;28;97479;-68
2023/07/04 01:13:57;;;;;;;14.13;3.95;;;;;;;23.04;37.94;100549.47;4985823;28;100205;-69
2023/07/04 01:16:24;;;;;;;12.13;4.03;;;;;;;22.99;38.25;100549.88;4991820;28;98915;-69
2023/07/04 01:18:54;;;;;;;12.00;3.88;;;;;;;23.11;38.08;100542.53;4992237;28;96855;-68
2023/07/04 01:21:23;;;;;;;14.38;3.83;;;;;;;22.88;38.35;100541.94;4987864;28;97614;-69
2023/07/04 01:23:56;;;;;;;15.32;3.95;;;;;;;22.85;38.04;100535.94;4988621;28;99283;-69
2023/07/04 01:26:29;;;;;;;13.13;4.10;;;;;;;23.02;38.10;100540.69;4985714;28;99293;-69
2023/07/04 01:28:57;;;;;;;11.43;4.00;;;;;;;23.07;37.89;100543.81;4993979;28;96734;-69
2023/07/04 01:31:25;;;;;;;9.63;3.67;;;;;;;22.87;38.18;100537.53;4993085;28;97804;-69
2023/07/04 01:33:52;;;;;;;11.75;4.35;;;;;;;22.75;38.38;100548.56;4987754;28;97806;-69
2023/07/04 01:36:24;;;;;;;13.13;4.00;;;;;;;22.80;38.59;100535.53;4986456;28;98827;-69
2023/07/04 01:38:51;;;;;;;12.27;4.22;;;;;;;22.84;38.50;100539.66;4995342;28;97019;-69
2023/07/04 01:41:18;;;;;;;12.80;3.78;;;;;;;22.87;38.70;100542.06;5002754;28;97133;-69
2023/07/04 01:43:50;;;;;;;13.07;3.97;;;;;;;22.94;38.35;100537.81;4993878;28;99020;-70
2023/07/04 01:46:16;;;;;;;9.55;3.15;;;;;;;23.13;38.16;100543.25;4988985;28;99125;-69
2023/07/04 01:48:43;;;;;;;13.38;3.90;;;;;;;23.13;37.98;100545.09;4992226;28;97110;-69
2023/07/04 01:51:09;;;;;;;9.93;3.63;;;;;;;23.08;38.16;100544.66;4989186;28;97344;-69
2023/07/04 01:53:35;;;;;;;14.88;3.88;;;;;;;22.92;38.36;100547.88;4990509;28;98987;-69
2023/07/04 01:56:02;;;;;;;14.10;3.85;;;;;;;22.82;38.71;100555.09;4990816;28;98612;-69
2023/07/04 01:58:28;;;;;;;8.70;3.53;;;;;;;22.83;38.82;100548.72;4984260;28;97343;-69
2023/07/04 02:00:56;;;;;;;8.88;4.03;;;;;;;22.95;38.67;100556.56;4994755;28;96883;-69
2023/07/04 02:03:23;;;;;;;11.55;3.72;;;;;;;22.73;38.84;100543.28;4984959;28;99108;-69
2023/07/04 02:05:49;;;;;;;12.60;4.03;;;;;;;22.72;39.07;100554.16;4985170;28;98938;-69
2023/07/04 02:08:15;;;;;;;11.63;3.65;;;;;;;22.79;39.07;100544.59;4986999;28;96887;-69
2023/07/04 02:10:42;;;;;;;8.95;3.40;;;;;;;22.91;38.61;100556.94;4995170;28;96956;-69
2023/07/04 02:13:08;;;;;;;7.85;3.70;;;;;;;22.68;39.18;100548.22;4988254;28;98234;-69
2023/07/04 02:15:35;;;;;;;10.60;4.38;;;;;;;22.49;39.47;100549.00;4999544;28;98766;-69
2023/07/04 02:18:02;;;;;;;15.07;4.70;;;;;;;22.85;38.88;100544.88;4980830;28;97696;-69
2023/07/04 02:20:29;;;;;;;14.98;3.97;;;;;;;22.74;39.18;100553.09;4987271;28;97562;-69
2023/07/04 02:22:55;;;;;;;9.77;3.30;;;;;;;22.65;39.09;100554.72;4993067;28;98959;-69
2023/07/04 02:25:21;;;;;;;9.52;3.50;;;;;;;22.50;39.95;100561.47;5001649;28;98916;-70
2023/07/04 02:27:48;;;;;;;11.35;3.80;;;;;;;22.71;39.25;100550.63;4996629;28;96968;-70
2023/07/04 02:30:14;;;;;;;8.18;3.70;;;;;;;22.84;39.03;100547.75;4994179;28;97270;-70
2023/07/04 02:32:41;;;;;;;8.43;3.90;;;;;;;22.74;39.31;100546.84;4988678;28;99253;-70
2023/07/04 02:35:09;;;;;;;15.73;3.88;;;;;;;22.70;39.46;100537.31;4993452;28;98807;-70
2023/07/04 02:37:35;;;;;;;10.30;3.58;;;;;;;22.77;39.17;100547.44;4986487;28;96863;-70
2023/07/04 02:40:04;;;;;;;9.35;3.45;;;;;;;22.90;38.90;100548.03;4994506;28;97187;-70
2023/07/04 02:42:30;;;;;;;8.93;3.80;;;;;;;22.69;39.30;100544.53;4987935;28;98864;-70
2023/07/04 02:44:57;;;;;;;12.00;4.40;;;;;;;22.51;39.94;100538.91;4994161;28;99306;-70
2023/07/04 02:47:26;;;;;;;9.13;3.75;;;;;;;22.71;39.60;100553.31;4989842;28;97958;-70
2023/07/04 02:49:52;;;;;;;11.32;4.13;;;;;;;22.64;39.59;100553.00;4986838;28;96826;-70
2023/07/04 02:52:20;;;;;;;13.38;4.15;;;;;;;22.67;39.92;100551.88;4987067;28;99299;-68
2023/07/04 02:54:47;;;;;;;15.07;4.20;;;;;;;22.76;39.42;100542.19;4983613;28;99487;-69
2023/07/04 02:57:16;;;;;;;12.80;4.53;;;;;;;22.79;39.61;100549.97;4987116;28;96803;-69
2023/07/04 02:59:43;;;;;;;9.60;4.20;;;;;;;22.89;39.58;100542.78;4981598;28;96785;-69
2023/07/04 03:02:09;;;;;;;11.35;4.00;;;;;;;22.67;39.92;100550.06;4986156;28;99337;-69
2023/07/04 03:04:36;;;;;;;9.38;3.85;;;;;;;22.65;39.77;100546.63;4994113;28;98866;-69
2023/07/04 03:07:03;;;;;;;7.65;3.38;;;;;;;22.38;40.45;100549.09;4989947;28;97615;-69
2023/07/04 03:09:31;;;;;;;11.70;4.30;;;;;;;22.61;40.04;100550.59;4991227;28;97023;-68
2023/07/04 03:11:58;;;;;;;10.50;4.25;;;;;;;22.69;39.80;100557.16;4977913;28;102081;-70
2023/07/04 03:14:25;;;;;;;13.18;4.38;;;;;;;22.64;39.66;100555.69;4988142;28;98808;-70
2023/07/04 03:16:51;;;;;;;10.10;3.90;;;;;;;22.61;39.90;100553.28;4997499;28;96783;-69
2023/07/04 03:19:19;;;;;;;12.85;4.65;;;;;;;22.56;40.13;100560.06;4982259;28;96976;-69
2023/07/04 03:21:46;;;;;;;11.23;4.40;;;;;;;22.58;40.24;100558.06;4987344;28;98062;-69
2023/07/04 03:24:12;;;;;;;11.95;3.95;;;;;;;22.39;40.38;100556.16;4990141;28;98848;-69
2023/07/04 03:26:40;;;;;;;7.70;3.97;;;;;;;21.93;41.63;100567.34;4986843;28;97820;-70
2023/07/04 03:29:07;;;;;;;10.25;3.75;;;;;;;21.93;41.75;100566.47;4989745;28;97095;-69
2023/07/04 03:31:34;;;;;;;10.73;3.90;;;;;;;22.04;41.59;100569.16;4988106;28;98908;-69
2023/07/04 03:34:00;;;;;;;10.88;4.28;;;;;;;22.07;41.68;100563.50;4990708;28;97830;-69
2023/07/04 03:36:27;;;;;;;21.83;4.70;;;;;;;22.15;41.43;100566.38;4992818;28;96892;-69
2023/07/04 03:38:53;;;;;;;13.45;4.18;;;;;;;22.18;41.49;100580.44;4983955;28;96851;-69
2023/07/04 03:41:19;;;;;;;12.98;4.22;;;;;;;22.10;41.75;100565.94;4984159;28;98951;-69
2023/07/04 03:43:47;;;;;;;11.75;4.53;;;;;;;22.11;41.76;100573.88;4983448;28;98068;-69
2023/07/04 03:46:13;;;;;;;11.60;4.13;;;;;;;21.96;42.21;100577.88;4978852;28;96755;-69
2023/07/04 03:48:42;;;;;;;11.20;4.40;;;;;;;22.03;41.99;100575.50;4986509;28;97475;-69
2023/07/04 03:51:08;;;;;;;10.45;3.90;;;;;;;22.03;41.94;100583.59;4987956;28;99460;-69
2023/07/04 03:53:37;;;;;;;12.32;4.60;;;;;;;22.02;41.92;100574.66;4994922;28;98977;-69
2023/07/04 03:56:09;;;;;;;11.93;4.07;;;;;;;21.91;42.19;100587.28;4988082;28;96926;-71
2023/07/04 03:58:36;;;;;;;9.95;4.43;;;;;;;21.86;42.01;100582.28;4992273;28;97522;-70
2023/07/04 04:01:06;;;;;;;10.90;4.30;;;;;;;21.96;42.19;100585.09;4995021;28;98145;-69
2023/07/04 04:03:37;;;;;;;13.07;4.38;;;;;;;22.16;41.82;100595.00;4984342;28;97615;-70
2023/07/04 04:06:04;;;;;;;15.35;4.85;;;;;;;22.17;41.55;100594.88;4979667;28;97711;-70
2023/07/04 04:08:31;;;;;;;18.05;5.00;;;;;;;22.15;41.34;100598.66;4983502;28;96928;-69
2023/07/04 04:10:57;;;;;;;13.55;4.68;;;;;;;21.97;41.80;100597.56;4991765;28;98131;-70
2023/07/04 04:13:24;;;;;;;10.52;4.28;;;;;;;21.84;42.02;100597.72;4984496;28;98964;-70
2023/07/04 04:15:51;;;;;;;9.68;4.18;;;;;;;22.08;41.89;100605.56;4991094;28;97339;-70
2023/07/04 04:18:19;;;;;;;10.43;3.92;;;;;;;22.11;41.28;100610.69;4989505;28;96946;-70
2023/07/04 04:20:46;;;;;;;11.68;4.20;;;;;;;21.91;41.71;100614.19;4985196;28;97892;-70
2023/07/04 04:23:13;;;;;;;9.07;3.97;;;;;;;22.02;41.20;100619.53;4986414;28;99187;-70
2023/07/04 04:25:39;;;;;;;13.55;4.35;;;;;;;22.24;40.86;100612.22;4977847;28;97201;-69
2023/07/04 04:28:06;;;;;;;8.68;3.65;;;;;;;21.93;41.42;100615.75;4978069;28;96786;-70
2023/07/04 04:30:32;;;;;;;12.00;3.80;;;;;;;22.25;40.95;100623.81;4984857;28;99153;-70
2023/07/04 04:33:03;;;;;;;10.32;4.10;;;;;;;22.37;40.55;100622.75;4999051;28;98168;-70
2023/07/04 04:35:47;;;;;;;10.45;3.83;;;;;;;22.40;40.73;100633.25;4997533;28;96755;-70
2023/07/04 04:38:14;;;;;;;8.25;3.92;;;;;;;22.52;40.44;100629.47;4993049;28;97091;-64
2023/07/04 04:40:40;;;;;;;10.25;4.38;;;;;;;22.41;40.30;100626.88;4992336;28;97945;-63
2023/07/04 04:43:07;;;;;;;11.77;4.13;;;;;;;22.59;40.41;100638.75;4995341;28;99288;-64
2023/07/04 04:45:34;;;;;;;19.20;4.70;;;;;;;22.70;40.18;100636.97;4987507;28;96926;-63
2023/07/04 04:48:01;;;;;;;24.52;4.82;;;;;;;22.63;40.19;100642.88;4989750;28;96934;-63
2023/07/04 04:50:30;;;;;;;11.40;4.32;;;;;;;22.33;40.94;100644.66;4995373;28;99393;-63
2023/07/04 04:52:58;;;;;;;11.02;4.80;;;;;;;22.58;40.91;100657.72;4991884;28;99195;-63
2023/07/04 04:55:26;;;;;;;9.10;4.15;;;;;;;22.51;40.70;100651.19;4987650;28;96855;-63
2023/07/04 04:57:53;;;;;;;13.30;5.07;;;;;;;22.62;40.63;100660.03;4990044;28;96994;-65
2023/07/04 05:00:20;;;;;;;12.43;4.68;;;;;;;22.53;40.74;100650.03;4988110;28;98988;-64
2023/07/04 05:02:47;;;;;;;17.67;5.22;;;;;;;22.63;40.40;100655.50;4984416;28;98884;-64
2023/07/04 05:05:14;;;;;;;12.07;4.57;;;;;;;22.45;40.48;100663.31;4992768;28;97010;-64
2023/07/04 05:07:40;;;;;;;13.43;4.13;;;;;;;22.47;40.70;100672.13;4979471;28;97413;-64
2023/07/04 05:10:09;;;;;;;11.13;5.00;;;;;;;22.66;40.66;100674.94;4982703;28;99051;-64
2023/07/04 05:12:36;;;;;;;12.55;4.45;;;;;;;22.87;40.42;100666.84;4987498;28;99292;-62
2023/07/04 05:15:03;;;;;;;18.75;4.63;;;;;;;22.63;40.67;100669.81;4993391;28;96705;-63
2023/07/04 05:17:29;;;;;;;10.95;4.10;;;;;;;22.51;40.82;100661.94;4995646;28;97953;-62
2023/07/04 05:19:58;;;;;;;15.25;4.25;;;;;;;22.60;41.19;100670.06;4993684;28;98940;-63
2023/07/04 05:22:24;;;;;;;12.98;4.32;;;;;;;23.03;40.30;100669.91;4993771;28;100825;-64
2023/07/04 05:24:51;;;;;;;10.50;4.90;;;;;;;23.15;39.97;100664.41;4990093;28;96676;-63
2023/07/04 05:27:19;;;;;;;11.63;4.25;;;;;;;23.42;39.38;100678.09;4995128;28;96767;-63
2023/07/04 05:29:47;;;;;;;14.00;4.85;;;;;;;23.56;39.10;100690.38;4986403;28;99179;-63
2023/07/04 05:32:14;;;;;;;15.35;4.63;;;;;;;23.47;39.41;100683.06;4986771;28;98884;-63
2023/07/04 05:34:40;;;;;;;11.98;4.30;;;;;;;23.53;39.61;100688.81;4989027;28;96966;-63
2023/07/04 05:37:07;;;;;;;15.30;4.45;;;;;;;23.24;40.09;100690.53;4985447;28;96871;-65
2023/07/04 05:39:34;;;;;;;14.50;4.90;;;;;;;22.77;41.10;100692.03;4987165;28;99090;-64
2023/07/04 05:42:00;;;;;;;11.93;4.10;;;;;;;23.22;40.56;100696.06;4979106;28;98803;-63
2023/07/04 05:44:28;;;;;;;14.63;4.60;;;;;;;23.33;40.30;100701.34;4986331;28;97561;-64
2023/07/04 05:46:55;;;;;;;17.60;4.95;;;;;;;23.56;39.50;100711.97;4986069;28;97519;-63
2023/07/04 05:49:22;;;;;;;16.95;4.68;;;;;;;23.75;39.16;100712.84;4992787;28;101503;-63
2023/07/04 05:51:48;;;;;;;15.70;5.20;;;;;;;23.92;39.13;100714.00;4988807;28;99842;-64
2023/07/04 05:54:15;;;;;;;10.90;4.60;;;;;;;23.38;40.10;100717.09;4992364;28;98644;-63
2023/07/04 05:56:41;;;;;;;13.85;4.40;;;;;;;23.17;40.80;100717.16;4988408;28;98252;-63
2023/07/04 05:59:09;;;;;;;13.20;4.25;;;;;;;23.23;41.23;100718.50;4999812;28;101228;-64
2023/07/04 06:01:39;;;;;;;17.15;5.13;;;;;;;22.99;41.30;100708.00;4997229;28;98921;-63
2023/07/04 06:04:07;;;;;;;15.25;4.93;;;;;;;23.03;41.52;100694.16;4989425;28;98399;-63
2023/07/04 06:06:37;;;;;;;17.77;4.70;;;;;;;23.65;40.36;100708.41;4992069;28;96967;-63
2023/07/04 06:09:06;;;;;;;13.25;4.40;;;;;;;24.01;39.83;100709.59;4996297;28;99255;-65
2023/07/04 06:11:34;;;;;;;13.90;4.15;;;;;;;23.93;39.77;100721.09;4994257;28;98887;-64
2023/07/04 06:14:02;;;;;;;12.20;4.15;;;;;;;23.68;39.91;100716.25;4985495;28;96824;-66
2023/07/04 06:16:28;;;;;;;9.85;3.80;;;;;;;23.54;40.28;100727.41;4990399;28;97333;-64
2023/07/04 06:18:56;;;;;;;10.82;4.40;;;;;;;23.61;40.19;100736.66;4991637;28;98918;-63
2023/07/04 06:21:25;;;;;;;12.32;4.30;;;;;;;23.39;40.31;100732.28;4988502;28;102056;-64
2023/07/04 06:23:56;;;;;;;12.80;4.30;;;;;;;23.62;40.41;100738.38;4994676;28;97684;-65
2023/07/04 06:26:27;;;;;;;13.20;3.78;;;;;;;23.88;40.23;100744.97;4984326;28;97494;-65
2023/07/04 06:28:54;;;;;;;12.38;3.80;;;;;;;23.74;40.21;100748.91;4991173;28;99177;-64
2023/07/04 06:31:21;;;;;;;8.75;2.95;;;;;;;23.42;40.90;100738.28;4990697;28;99149;-63
2023/07/04 06:33:47;;;;;;;9.60;2.85;;;;;;;23.21;40.79;100750.97;4985907;28;96898;-63
2023/07/04 06:36:16;;;;;;;8.68;2.80;;;;;;;23.45;40.48;100737.13;4981755;28;98429;-64
2023/07/04 06:38:43;;;;;;;9.80;3.45;;;;;;;23.81;39.91;100738.41;4990255;28;101697;-63
2023/07/04 06:41:12;;;;;;;13.68;3.53;;;;;;;23.38;40.15;100741.38;4998502;28;98810;-63
2023/07/04 06:43:45;;;;;;;7.20;2.90;;;;;;;23.32;40.70;100750.88;4989318;28;96889;-64
2023/07/04 06:46:12;;;;;;;8.23;2.92;;;;;;;23.80;40.28;100756.44;4997507;28;97816;-64
2023/07/04 06:48:38;;;;;;;10.60;2.95;;;;;;;24.17;39.21;100756.63;4986768;28;99207;-64
2023/07/04 06:51:07;;;;;;;8.95;2.80;;;;;;;24.77;37.84;100761.88;4993346;28;98767;-63
2023/07/04 06:53:36;;;;;;;13.65;3.25;;;;;;;24.83;37.47;100767.56;4994921;28;97264;-64
2023/07/04 06:56:09;;;;;;;8.23;3.13;;;;;;;24.57;38.05;100769.16;4990744;28;98480;-63
2023/07/04 06:58:40;;;;;;;7.65;3.95;;;;;;;24.32;38.48;100764.34;4997136;28;98949;-63
2023/07/04 07:01:06;;;;;;;14.57;2.58;;;;;;;24.43;38.21;100775.84;4997098;28;98919;-69
2023/07/04 07:03:33;;;;;;;6.63;2.50;;;;;;;24.29;38.40;100761.91;4985947;28;96854;-68
2023/07/04 07:06:01;;;;;;;5.85;2.55;;;;;;;24.40;38.37;100761.78;4983428;28;96845;-69
2023/07/04 07:08:28;;;;;;;11.23;2.50;;;;;;;24.68;37.85;100769.00;4985977;28;97868;-69
2023/07/04 07:10:58;;;;;;;5.20;2.60;;;;;;;24.94;37.10;100780.09;4986309;28;98905;-69
2023/07/04 07:13:25;;;;;;;14.35;2.60;;;;;;;24.55;37.84;100781.94;4989091;28;96785;-70
2023/07/04 07:15:52;;;;;;;11.38;2.55;;;;;;;24.08;38.59;100781.78;4988619;28;97205;-70
2023/07/04 07:18:19;;;;;;;9.38;3.50;;;;;;;24.27;38.62;100790.91;4987419;28;98945;-70
2023/07/04 07:20:45;;;;;;;6.30;2.70;;;;;;;24.40;37.58;100789.66;4984380;28;101487;-69
2023/07/04 07:23:12;;;;;;;9.95;2.35;;;;;;;24.68;37.88;100795.19;5003630;28;96760;-69
2023/07/04 07:25:39;;;;;;;11.60;2.78;;;;;;;24.76;37.79;100801.56;4992933;28;97320;-70
2023/07/04 07:28:06;;;;;;;10.85;2.70;;;;;;;25.01;37.76;100797.41;4995395;28;98896;-69
2023/07/04 07:30:33;;;;;;;7.57;3.05;;;;;;;24.68;37.70;100796.00;4989188;28;99242;-68
2023/07/04 07:32:59;;;;;;;6.70;2.70;;;;;;;24.70;38.27;100799.44;4992038;28;96894;-70
2023/07/04 07:35:30;;;;;;;12.95;3.10;;;;;;;24.86;37.76;100804.25;4989721;28;98938;-69
2023/07/04 07:37:56;;;;;;;12.93;2.97;;;;;;;24.71;37.12;100809.25;4993667;28;99243;-68
2023/07/04 07:40:23;;;;;;;10.90;3.78;;;;;;;24.12;37.44;100803.94;4995887;28;97927;-69
2023/07/04 07:42:49;;;;;;;9.65;2.88;;;;;;;24.54;37.04;100793.78;4989717;28;96787;-70
2023/07/04 07:45:17;;;;;;;7.65;3.00;;;;;;;24.88;36.02;100800.41;4988834;28;97321;-69
2023/07/04 07:47:43;;;;;;;11.98;3.53;;;;;;;24.68;36.18;100800.59;4990149;28;99311;-69
2023/07/04 07:50:10;;;;;;;7.95;2.67;;;;;;;24.48;36.91;100795.16;4993548;28;99012;-69
2023/07/04 07:52:36;;;;;;;12.07;2.72;;;;;;;24.70;36.63;100804.84;4983863;28;96820;-70
2023/07/04 07:55:03;;;;;;;7.05;2.75;;;;;;;24.22;36.82;100797.56;4984387;28;96917;-70
2023/07/04 07:57:30;;;;;;;10.18;3.00;;;;;;;24.32;36.72;100794.91;4997975;28;99145;-70
2023/07/04 07:59:56;;;;;;;11.40;2.58;;;;;;;24.23;36.94;100787.63;4992136;28;97562;-69
2023/07/04 08:02:24;;;;;;;7.80;2.58;;;;;;;24.80;36.25;100796.72;4985969;28;97040;-69
2023/07/04 08:04:50;;;;;;;5.18;2.25;;;;;;;25.35;35.52;100786.94;4989804;28;96968;-69
2023/07/04 08:07:16;;;;;;;5.88;2.20;;;;;;;25.10;35.81;100798.41;4985651;28;99060;-69
2023/07/04 08:09:43;;;;;;;9.55;2.17;;;;;;;24.86;35.47;100813.22;4985902;28;98156;-69
2023/07/04 08:12:09;;;;;;;11.95;2.72;;;;;;;25.12;35.85;100807.22;4984957;28;98668;-68
2023/07/04 08:14:36;;;;;;;9.13;2.47;;;;;;;24.95;36.03;100809.66;4986490;28;99205;-64
2023/07/04 08:17:02;;;;;;;7.95;2.55;;;;;;;24.66;35.70;100805.28;4986394;28;98977;-63
2023/07/04 08:19:30;;;;;;;8.02;2.30;;;;;;;24.28;36.68;100807.00;4984504;28;99573;-63
2023/07/04 08:21:56;;;;;;;7.82;2.55;;;;;;;24.31;36.28;100803.13;4984643;28;98565;-63
2023/07/04 08:24:23;;;;;;;5.43;2.25;;;;;;;24.68;36.31;100814.91;4981785;28;97442;-64
2023/07/04 08:26:53;;;;;;;8.77;2.63;;;;;;;24.36;36.24;100799.00;4985719;28;99051;-65
2023/07/04 08:29:19;;;;;;;9.20;2.45;;;;;;;24.65;36.02;100817.94;4985049;28;98872;-63
2023/07/04 08:31:46;;;;;;;8.38;2.53;;;;;;;25.07;35.35;100813.09;4985245;28;97516;-70
2023/07/04 08:34:12;;;;;;;9.15;2.60;;;;;;;25.56;35.08;100811.03;4983264;28;97178;-69
2023/07/04 08:36:41;;;;;;;7.20;2.42;;;;;;;25.97;33.76;100805.16;4985668;28;100195;-69
2023/07/04 08:39:10;;;;;;;12.57;2.47;;;;;;;26.35;33.06;100811.34;4985661;28;97727;-70
2023/07/04 08:41:43;;;;;;;10.38;2.25;;;;;;;25.96;33.83;100805.31;4984485;28;97859;-70
2023/07/04 08:44:13;;;;;;;8.10;2.03;;;;;;;26.11;33.67;100807.38;4985250;28;97398;-72
2023/07/04 08:46:44;;;;;;;7.68;2.30;;;;;;;26.30;33.65;100822.66;4983841;28;99275;-69
2023/07/04 08:49:23;;;;;;;5.45;1.98;;;;;;;26.70;32.43;100810.50;4991041;28;99171;-69
2023/07/04 08:51:56;;;;;;;8.32;2.53;;;;;;;26.52;32.30;100822.19;4982610;28;97830;-70
2023/07/04 08:54:23;;;;;;;4.95;2.00;;;;;;;26.66;32.38;100817.22;4985233;28;97482;-70
2023/07/04 08:56:51;;;;;;;9.60;2.55;;;;;;;26.14;32.99;100822.44;4983034;28;99459;-69
2023/07/04 08:59:37;;;;;;;8.18;1.98;;;;;;;25.56;32.86;100830.84;4993100;28;98059;-69
2023/07/04 09:02:23;;;;;;;7.88;2.53;;;;;;;25.54;32.89;100822.00;4990491;28;98655;-71
2023/07/04 09:05:10;;;;;;;5.60;2.08;;;;;;;25.89;31.82;100815.03;4987177;28;96825;-68
2023/07/04 09:07:43;;;;;;;4.88;2.10;;;;;;;26.25;31.38;100819.56;4983586;28;98272;-71
2023/07/04 09:10:22;;;;;;;11.77;2.17;;;;;;;26.23;31.25;100816.13;4983147;28;100129;-69
2023/07/04 09:12:49;;;;;;;6.68;2.10;;;;;;;26.27;31.12;100820.25;4980174;28;96964;-70
2023/07/04 09:15:24;;;;;;;9.25;2.30;;;;;;;26.43;31.20;100823.13;4987978;28;97386;-70
2023/07/04 09:17:58;;;;;;;7.63;2.42;;;;;;;25.86;30.38;100818.06;4982268;28;99061;-70
2023/07/04 09:20:25;;;;;;;6.70;1.73;;;;;;;25.77;31.41;100828.78;4986315;28;99566;-70
2023/07/04 09:22:53;;;;;;;8.20;2.20;;;;;;;25.27;31.99;100824.69;4983575;28;96865;-70
2023/07/04 09:25:19;;;;;;;5.47;1.73;;;;;;;25.44;31.78;100826.63;4992415;28;96955;-70
2023/07/04 09:27:45;;;;;;;7.10;1.80;;;;;;;25.64;31.09;100831.00;4987021;28;99333;-70
2023/07/04 09:30:12;;;;;;;4.40;1.60;;;;;;;25.72;30.78;100833.81;4986849;28;98054;-68
2023/07/04 09:32:39;;;;;;;5.05;1.70;;;;;;;25.96;30.98;100835.09;4988702;28;97884;-70
2023/07/04 09:35:08;;;;;;;6.63;2.60;;;;;;;25.69;31.27;100827.81;4989351;28;96990;-70
2023/07/04 09:37:56;;;;;;;11.75;2.08;;;;;;;25.94;31.24;100835.25;4988391;28;99061;-69
2023/07/04 09:40:40;;;;;;;10.30;2.30;;;;;;;26.06;31.59;100827.75;4987686;28;99307;-70
2023/07/04 09:43:07;;;;;;;7.85;1.95;;;;;;;26.33;30.56;100832.31;4987631;28;96930;-70
2023/07/04 09:45:36;;;;;;;4.22;1.65;;;;;;;26.14;30.83;100833.25;4983028;28;97156;-70
2023/07/04 09:48:04;;;;;;;4.40;1.58;;;;;;;26.06;31.29;100828.59;4977690;28;99244;-69
2023/07/04 09:50:32;;;;;;;14.07;2.35;;;;;;;26.02;31.61;100834.50;4983756;28;99111;-69
2023/07/04 09:53:07;;;;;;;5.35;1.92;;;;;;;26.01;31.38;100847.16;4983294;28;96785;-70
2023/07/04 09:55:34;;;;;;;6.45;2.03;;;;;;;25.63;31.22;100839.25;4988722;28;97455;-69
2023/07/04 09:58:17;;;;;;;7.40;1.70;;;;;;;25.32;31.54;100858.41;4989734;28;98923;-69
2023/07/04 10:00:45;;;;;;;8.98;1.60;;;;;;;25.10;31.61;100847.91;4987737;28;97514;-69
2023/07/04 10:03:12;;;;;;;4.97;1.58;;;;;;;25.36;31.39;100838.16;4995932;28;96931;-68
2023/07/04 10:05:39;;;;;;;8.32;1.60;;;;;;;25.04;31.29;100847.66;4991099;28;97815;-68
2023/07/04 10:08:10;;;;;;;5.78;1.45;;;;;;;25.28;31.27;100842.59;4988410;28;99295;-69
2023/07/04 10:10:39;;;;;;;5.72;1.55;;;;;;;25.19;31.36;100843.50;4988704;28;98679;-69
2023/07/04 10:13:08;;;;;;;6.43;2.13;;;;;;;25.36;31.19;100840.88;4984730;28;97098;-69
2023/07/04 10:15:43;;;;;;;7.82;1.70;;;;;;;25.59;30.74;100830.59;4992331;28;96820;-69
2023/07/04 10:18:23;;;;;;;7.65;1.67;;;;;;;26.19;30.09;100836.38;4982871;28;99096;-69
2023/07/04 10:20:53;;;;;;;6.22;1.10;;;;;;;26.46;29.40;100855.31;4982538;28;99371;-69
2023/07/04 10:23:21;;;;;;;6.72;1.45;;;;;;;26.59;29.27;100844.94;4989507;28;96835;-69
2023/07/04 10:25:49;;;;;;;8.23;2.00;;;;;;;26.24;29.62;100841.34;4989356;28;97453;-69
2023/07/04 10:28:18;;;;;;;7.35;1.75;;;;;;;25.57;30.03;100840.69;4992999;28;98957;-69
2023/07/04 10:30:48;;;;;;;7.28;1.63;;;;;;;25.99;30.15;100851.06;4983266;28;98963;-69
2023/07/04 10:33:19;;;;;;;5.28;1.70;;;;;;;26.01;29.40;100832.78;4990266;28;97206;-69
2023/07/04 10:35:48;;;;;;;5.65;1.67;;;;;;;26.12;29.62;100833.41;4992554;28;97249;-70
2023/07/04 10:38:26;;;;;;;6.07;1.85;;;;;;;26.29;29.53;100836.34;4993150;28;98864;-69
2023/07/04 10:40:53;;;;;;;7.80;1.92;;;;;;;26.43;29.04;100841.25;4985713;28;99111;-69
2023/07/04 10:43:32;;;;;;;4.93;1.50;;;;;;;26.18;29.50;100834.69;4987079;28;97017;-69
2023/07/04 10:46:01;;;;;;;4.65;1.27;;;;;;;25.74;29.88;100842.59;4993818;28;97846;-70
2023/07/04 10:48:31;;;;;;;2.95;1.45;;;;;;;26.03;29.46;100836.19;4988052;28;98929;-70
2023/07/04 10:51:05;;;;;;;9.35;1.77;;;;;;;25.93;29.85;100835.41;4989585;28;99409;-69
2023/07/04 10:53:32;;;;;;;3.72;1.50;;;;;;;26.06;29.67;100844.84;4989196;28;96865;-70
2023/07/04 10:58:51;;;;;;;7.13;1.75;;;;;;;26.18;30.22;100849.09;4980527;28;97937;-70
2023/07/04 11:01:22;;;;;;;6.15;1.77;;;;;;;26.45;29.83;100859.03;4986802;28;99381;-68
2023/07/04 11:03:54;;;;;;;5.07;1.80;;;;;;;25.82;30.50;100868.06;4991790;28;97314;-69
2023/07/04 11:06:29;;;;;;;7.35;2.17;;;;;;;25.35;31.34;100865.34;4991958;28;97923;-69
2023/07/04 11:08:57;;;;;;;4.85;2.00;;;;;;;25.48;31.79;100863.19;4992060;28;97683;-70
2023/07/04 11:11:28;;;;;;;10.05;2.50;;;;;;;25.07;32.37;100869.00;4983984;28;99019;-69
2023/07/04 11:13:59;;;;;;;9.75;2.10;;;;;;;25.36;32.03;100865.22;4984962;28;96826;-69
2023/07/04 11:16:29;;;;;;;6.63;1.83;;;;;;;25.84;31.28;100858.81;4989042;28;98019;-69
2023/07/04 11:19:04;;;;;;;7.10;2.00;;;;;;;26.07;31.28;100873.63;4988095;28;99999;-69
2023/07/04 11:21:31;;;;;;;5.22;2.08;;;;;;;25.86;31.29;100869.50;4986355;28;98908;-69
2023/07/04 11:24:13;;;;;;;10.13;2.25;;;;;;;25.70;31.85;100873.69;4990086;28;96778;-69
2023/07/04 11:26:50;;;;;;;7.50;2.53;;;;;;;26.01;31.70;100868.84;4987530;28;97079;-69
2023/07/04 11:29:17;;;;;;;6.93;2.20;;;;;;;25.82;31.60;100876.19;4983143;28;98796;-69